Time;durP1;ratioP1;P1;durP2;ratioP2;P2;SDS_P1;SDS_P2;PMS_P1;PMS_P2;Temp;Humidity;BMP_temperature;BMP_pressure;BME280_temperature;BME280_humidity;BME280_pressure;Samples;Min_cycle;Max_cycle;Signal;HPM_P1;HPM_P2
2020/12/04 00:01:32;;;;;;;;;;;27.90;42.40;;;;;;5095462;28;19915;-56
2020/12/04 00:03:57;;;;;;;;;;;27.80;42.50;;;;;;5095786;28;19919;-61
2020/12/04 00:06:23;;;;;;;;;;;27.30;34.00;;;;;;5095491;28;19919;-61
2020/12/04 00:08:48;;;;;;;;;;;26.20;26.50;;;;;;5086731;28;20275;-57
2020/12/04 00:11:14;;;;;;;;;;;24.80;26.80;;;;;;5075101;28;19913;-53
2020/12/04 00:13:39;;;;;;;;;;;24.50;29.10;;;;;;5074979;28;19912;-54
2020/12/04 00:16:05;;;;;;;;;;;24.90;31.80;;;;;;5075317;28;19965;-46
2020/12/04 00:18:30;;;;;;;;;;;25.40;32.80;;;;;;5092742;28;19916;-45
2020/12/04 00:20:56;;;;;;;;;;;25.90;34.50;;;;;;5074888;28;19908;-45
2020/12/04 00:23:21;;;;;;;;;;;26.30;34.30;;;;;;5075193;28;19912;-45
2020/12/04 00:25:47;;;;;;;;;;;26.70;34.20;;;;;;5075176;28;19908;-45
2020/12/04 00:28:12;;;;;;;;;;;27.00;34.00;;;;;;5074614;28;19912;-47
2020/12/04 00:30:38;;;;;;;;;;;27.10;34.00;;;;;;5093009;28;20366;-50
2020/12/04 00:33:03;;;;;;;;;;;27.20;34.50;;;;;;5094289;28;20280;-46
2020/12/04 00:35:29;;;;;;;;;;;27.20;34.70;;;;;;5094746;28;19915;-46
2020/12/04 00:37:54;;;;;;;;;;;27.20;35.30;;;;;;5094848;28;19912;-46
2020/12/04 00:40:20;;;;;;;;;;;27.20;35.00;;;;;;5091325;28;19999;-46
2020/12/04 00:42:46;;;;;;;;;;;27.40;35.10;;;;;;5075319;28;19969;-46
2020/12/04 00:45:15;;;;;;;;;;;27.50;34.90;;;;;;5074408;28;20402;-46
2020/12/04 00:47:40;;;;;;;;;;;27.60;34.90;;;;;;5082761;28;19920;-46
2020/12/04 00:50:06;;;;;;;;;;;27.60;34.70;;;;;;5093751;28;19923;-50
2020/12/04 00:52:31;;;;;;;;;;;27.50;35.30;;;;;;5093601;28;19912;-46
2020/12/04 00:54:57;;;;;;;;;;;27.30;36.30;;;;;;5094345;28;20363;-47
2020/12/04 00:57:22;;;;;;;;;;;27.40;36.90;;;;;;5088199;28;19995;-47
2020/12/04 00:59:48;;;;;;;;;;;27.50;37.00;;;;;;5074333;28;19909;-46
2020/12/04 01:02:13;;;;;;;;;;;27.50;37.20;;;;;;5074381;28;19912;-46
2020/12/04 01:04:39;;;;;;;;;;;27.50;37.20;;;;;;5074332;28;19909;-46
2020/12/04 01:07:04;;;;;;;;;;;27.50;37.20;;;;;;5075033;28;19955;-46
2020/12/04 01:09:31;;;;;;;;;;;27.50;37.20;;;;;;5094234;28;20638;-46
2020/12/04 01:11:56;;;;;;;;;;;27.50;37.20;;;;;;5094299;28;19994;-46
2020/12/04 01:14:22;;;;;;;;;;;27.50;37.30;;;;;;5094608;28;19954;-47
2020/12/04 01:16:47;;;;;;;;;;;27.40;37.20;;;;;;5094189;28;19915;-47
2020/12/04 01:19:13;;;;;;;;;;;27.40;37.30;;;;;;5075168;28;19923;-46
2020/12/04 01:21:38;;;;;;;;;;;27.40;37.40;;;;;;5073909;28;20379;-46
2020/12/04 01:24:04;;;;;;;;;;;27.40;37.40;;;;;;5074176;28;19912;-46
2020/12/04 01:26:29;;;;;;;;;;;27.40;37.50;;;;;;5083463;28;19908;-46
2020/12/04 01:28:55;;;;;;;;;;;27.40;37.50;;;;;;5093857;28;20405;-46
2020/12/04 01:31:20;;;;;;;;;;;27.40;37.50;;;;;;5094311;28;20046;-46
2020/12/04 01:33:45;;;;;;;;;;;27.40;37.70;;;;;;5093837;28;19934;-46
2020/12/04 01:36:13;;;;;;;;;;;27.40;37.70;;;;;;5086575;28;19924;-46
2020/12/04 01:38:38;;;;;;;;;;;27.40;37.70;;;;;;5073549;28;19918;-46
2020/12/04 01:41:04;;;;;;;;;;;27.40;37.70;;;;;;5073728;28;19909;-46
2020/12/04 01:43:29;;;;;;;;;;;27.40;37.90;;;;;;5073437;28;19908;-46
2020/12/04 01:45:55;;;;;;;;;;;27.40;37.90;;;;;;5077608;28;19908;-47
2020/12/04 01:48:20;;;;;;;;;;;27.30;38.10;;;;;;5093888;28;19965;-46
2020/12/04 01:50:46;;;;;;;;;;;27.30;38.20;;;;;;5093637;28;19965;-46
2020/12/04 01:53:11;;;;;;;;;;;27.40;38.20;;;;;;5092340;28;20003;-46
2020/12/04 01:55:38;;;;;;;;;;;27.40;38.30;;;;;;5091405;28;19995;-47
2020/12/04 01:58:04;;;;;;;;;;;27.40;38.40;;;;;;5072311;28;19917;-46
2020/12/04 02:00:29;;;;;;;;;;;27.40;38.50;;;;;;5073417;28;20315;-46
2020/12/04 02:02:55;;;;;;;;;;;27.40;38.50;;;;;;5073362;28;19908;-46
2020/12/04 02:05:20;;;;;;;;;;;27.40;38.50;;;;;;5071861;28;19947;-46
2020/12/04 02:07:50;;;;;;;;;;;27.40;38.50;;;;;;5075434;28;20010;-46
2020/12/04 02:10:20;;;;;;;;;;;27.40;38.60;;;;;;5071983;28;19920;-46
2020/12/04 02:12:46;;;;;;;;;;;27.30;38.60;;;;;;5073044;28;20389;-46
2020/12/04 02:15:12;;;;;;;;;;;27.30;38.60;;;;;;5072125;28;19988;-46
2020/12/04 02:17:37;;;;;;;;;;;27.30;38.60;;;;;;5090778;28;20413;-45
2020/12/04 02:20:03;;;;;;;;;;;27.30;39.20;;;;;;5092186;28;19908;-46
2020/12/04 02:22:35;;;;;;;;;;;27.30;38.60;;;;;;5093344;28;19915;-46
2020/12/04 02:25:01;;;;;;;;;;;27.30;38.60;;;;;;5093079;28;20370;-46
2020/12/04 02:27:26;;;;;;;;;;;27.30;38.60;;;;;;5075434;28;19926;-46
2020/12/04 02:29:52;;;;;;;;;;;27.30;38.60;;;;;;5072987;28;20007;-46
2020/12/04 02:32:17;;;;;;;;;;;27.20;38.60;;;;;;5073106;28;19919;-45
2020/12/04 02:34:43;;;;;;;;;;;27.20;38.70;;;;;;5079663;28;20390;-45
2020/12/04 02:37:08;;;;;;;;;;;27.20;38.80;;;;;;5092874;28;19954;-46
2020/12/04 02:39:34;;;;;;;;;;;27.20;38.90;;;;;;5093195;28;19954;-46
2020/12/04 02:41:59;;;;;;;;;;;27.20;38.90;;;;;;5093149;28;19962;-45
2020/12/04 02:44:25;;;;;;;;;;;27.20;39.00;;;;;;5088491;28;20286;-46
2020/12/04 02:46:51;;;;;;;;;;;27.30;39.00;;;;;;5072941;28;19912;-46
2020/12/04 02:49:20;;;;;;;;;;;27.20;39.10;;;;;;5072509;28;19917;-46
2020/12/04 02:51:46;;;;;;;;;;;27.20;39.10;;;;;;5072575;28;19908;-46
2020/12/04 02:54:11;;;;;;;;;;;27.20;39.10;;;;;;5074623;28;20427;-46
2020/12/04 02:56:37;;;;;;;;;;;27.20;39.10;;;;;;5093091;28;19912;-46
2020/12/04 02:59:03;;;;;;;;;;;27.20;39.20;;;;;;5092980;28;19912;-46
2020/12/04 03:01:28;;;;;;;;;;;27.20;39.10;;;;;;5092689;28;19915;-46
2020/12/04 03:03:54;;;;;;;;;;;27.20;39.10;;;;;;5092677;28;19912;-46
2020/12/04 03:06:19;;;;;;;;;;;27.20;39.10;;;;;;5072788;28;19931;-46
2020/12/04 03:08:45;;;;;;;;;;;27.20;39.10;;;;;;5072604;28;19917;-46
2020/12/04 03:11:10;;;;;;;;;;;27.20;39.10;;;;;;5072463;28;19999;-46
2020/12/04 03:13:36;;;;;;;;;;;27.20;39.70;;;;;;5073525;28;19909;-46
2020/12/04 03:16:01;;;;;;;;;;;27.20;39.10;;;;;;5093192;28;19955;-46
2020/12/04 03:18:27;;;;;;;;;;;27.20;39.10;;;;;;5096830;28;19915;-46
2020/12/04 03:20:52;;;;;;;;;;;27.20;39.20;;;;;;5096836;28;19935;-46
2020/12/04 03:23:18;;;;;;;;;;;27.20;39.10;;;;;;5096401;28;20370;-46
2020/12/04 03:25:44;;;;;;;;;;;27.20;39.10;;;;;;5081801;28;19917;-47
2020/12/04 03:28:09;;;;;;;;;;;27.20;39.70;;;;;;5076330;28;19995;-46
2020/12/04 03:30:35;;;;;;;;;;;27.10;39.10;;;;;;5076258;28;19916;-46
2020/12/04 03:33:00;;;;;;;;;;;27.10;39.10;;;;;;5078709;28;19977;-46
2020/12/04 03:35:26;;;;;;;;;;;27.10;39.20;;;;;;5076278;28;20324;-46
2020/12/04 03:37:51;;;;;;;;;;;27.10;39.10;;;;;;5075811;28;19967;-46
2020/12/04 03:40:17;;;;;;;;;;;27.20;39.10;;;;;;5075798;28;19909;-46
2020/12/04 03:42:42;;;;;;;;;;;27.20;39.10;;;;;;5092547;28;19919;-46
2020/12/04 03:45:08;;;;;;;;;;;27.20;39.10;;;;;;5096400;28;19908;-46
2020/12/04 03:47:35;;;;;;;;;;;27.10;39.00;;;;;;5096108;28;19914;-46
2020/12/04 03:50:02;;;;;;;;;;;27.10;39.00;;;;;;5096081;28;19962;-46
2020/12/04 03:52:27;;;;;;;;;;;27.10;39.00;;;;;;5081748;28;19912;-47
2020/12/04 03:54:53;;;;;;;;;;;27.10;39.00;;;;;;5075626;28;19908;-46
2020/12/04 03:57:18;;;;;;;;;;;27.10;39.00;;;;;;5075987;28;19962;-47
2020/12/04 03:59:44;;;;;;;;;;;27.10;38.90;;;;;;5075799;28;19946;-46
2020/12/04 04:02:09;;;;;;;;;;;27.10;38.90;;;;;;5086661;28;19920;-46
2020/12/04 04:04:35;;;;;;;;;;;27.10;38.90;;;;;;5095655;28;20310;-45
2020/12/04 04:07:00;;;;;;;;;;;27.10;38.80;;;;;;5086016;28;19955;-45
2020/12/04 04:09:26;;;;;;;;;;;27.10;38.90;;;;;;5075174;28;19916;-46
2020/12/04 04:11:51;;;;;;;;;;;27.10;38.90;;;;;;5075511;28;19913;-46
2020/12/04 04:14:17;;;;;;;;;;;27.10;38.80;;;;;;5075205;28;20372;-45
2020/12/04 04:16:42;;;;;;;;;;;27.10;38.80;;;;;;5091934;28;19912;-45
2020/12/04 04:19:08;;;;;;;;;;;27.10;38.70;;;;;;5095412;28;19915;-46
2020/12/04 04:21:39;;;;;;;;;;;27.10;38.70;;;;;;5095272;28;20377;-46
2020/12/04 04:24:04;;;;;;;;;;;27.10;38.80;;;;;;5095421;28;19942;-46
2020/12/04 04:26:30;;;;;;;;;;;27.10;38.70;;;;;;5079577;28;20325;-46
2020/12/04 04:28:55;;;;;;;;;;;27.00;38.70;;;;;;5074866;28;20440;-46
2020/12/04 04:31:21;;;;;;;;;;;27.00;38.70;;;;;;5075015;28;19913;-46
2020/12/04 04:33:46;;;;;;;;;;;27.00;38.70;;;;;;5075146;28;19915;-47
2020/12/04 04:36:12;;;;;;;;;;;27.10;38.80;;;;;;5086358;28;20435;-47
2020/12/04 04:38:38;;;;;;;;;;;27.00;38.60;;;;;;5094942;28;19912;-47
2020/12/04 04:41:03;;;;;;;;;;;27.00;38.70;;;;;;5094936;28;20366;-45
2020/12/04 04:43:29;;;;;;;;;;;27.00;38.60;;;;;;5091826;28;19926;-46
2020/12/04 04:45:54;;;;;;;;;;;27.10;38.60;;;;;;5074608;28;19917;-45
2020/12/04 04:48:26;;;;;;;;;;;27.10;38.60;;;;;;5073588;28;20008;-46
2020/12/04 04:50:53;;;;;;;;;;;27.10;38.60;;;;;;5074836;28;20379;-45
2020/12/04 04:53:18;;;;;;;;;;;27.00;38.50;;;;;;5075414;28;19915;-45
2020/12/04 04:55:44;;;;;;;;;;;27.10;38.50;;;;;;5074591;28;19913;-47
2020/12/04 04:58:10;;;;;;;;;;;27.00;38.50;;;;;;5074290;28;19908;-47
2020/12/04 05:00:35;;;;;;;;;;;27.00;38.50;;;;;;5074597;28;19916;-46
2020/12/04 05:03:02;;;;;;;;;;;27.00;38.50;;;;;;5074446;28;20022;-45
2020/12/04 05:05:43;;;;;;;;;;;27.10;38.50;;;;;;5093091;28;20400;-47
2020/12/04 05:08:11;;;;;;;;;;;27.00;38.40;;;;;;5094196;28;19942;-46
2020/12/04 05:10:37;;;;;;;;;;;27.00;38.50;;;;;;5094628;28;19923;-45
2020/12/04 05:13:02;;;;;;;;;;;27.00;38.50;;;;;;5093187;28;19908;-46
2020/12/04 05:15:28;;;;;;;;;;;27.00;38.50;;;;;;5090806;28;20255;-45
2020/12/04 05:18:00;;;;;;;;;;;26.90;38.50;;;;;;5074253;28;19913;-46
2020/12/04 05:20:26;;;;;;;;;;;26.90;38.50;;;;;;5073857;28;19919;-45
2020/12/04 05:22:55;;;;;;;;;;;27.00;38.50;;;;;;5074024;28;20007;-46
2020/12/04 05:25:20;;;;;;;;;;;27.00;38.50;;;;;;5091242;28;19919;-45
2020/12/04 05:27:46;;;;;;;;;;;27.00;38.40;;;;;;5094341;28;19912;-45
2020/12/04 05:30:21;;;;;;;;;;;27.00;38.40;;;;;;5093828;28;20366;-45
2020/12/04 05:32:46;;;;;;;;;;;26.90;38.50;;;;;;5094173;28;19965;-46
2020/12/04 05:35:12;;;;;;;;;;;26.90;38.40;;;;;;5076212;28;19916;-45
2020/12/04 05:37:38;;;;;;;;;;;27.00;38.40;;;;;;5073243;28;19955;-46
2020/12/04 05:40:04;;;;;;;;;;;26.90;38.30;;;;;;5073846;28;19944;-46
2020/12/04 05:42:33;;;;;;;;;;;26.90;38.40;;;;;;5080835;28;20335;-47
2020/12/04 05:44:58;;;;;;;;;;;27.00;38.30;;;;;;5093694;28;19909;-47
2020/12/04 05:47:34;;;;;;;;;;;26.90;38.30;;;;;;5094003;28;20003;-47
2020/12/04 05:49:59;;;;;;;;;;;27.00;38.30;;;;;;5093564;28;20052;-46
2020/12/04 05:52:25;;;;;;;;;;;26.90;38.20;;;;;;5073329;28;20370;-46
2020/12/04 05:54:50;;;;;;;;;;;26.90;38.20;;;;;;5072389;28;19915;-45
2020/12/04 05:57:16;;;;;;;;;;;27.00;38.80;;;;;;5072242;28;19912;-46
2020/12/04 05:59:41;;;;;;;;;;;27.00;38.30;;;;;;5071961;28;20358;-45
2020/12/04 06:02:12;;;;;;;;;;;26.90;38.20;;;;;;5090870;28;19919;-45
2020/12/04 06:04:37;;;;;;;;;;;27.00;38.20;;;;;;5093453;28;19916;-46
2020/12/04 06:07:03;;;;;;;;;;;27.00;38.20;;;;;;5092054;28;19927;-45
2020/12/04 06:09:28;;;;;;;;;;;26.90;38.30;;;;;;5091942;28;19938;-45
2020/12/04 06:11:53;;;;;;;;;;;26.90;38.20;;;;;;5076237;28;19919;-46
2020/12/04 06:14:20;;;;;;;;;;;26.90;38.10;;;;;;5073332;28;20007;-45
2020/12/04 06:17:00;;;;;;;;;;;26.90;38.70;;;;;;5072975;28;19915;-46
2020/12/04 06:19:26;;;;;;;;;;;26.90;38.10;;;;;;5075620;28;19946;-45
2020/12/04 06:21:51;;;;;;;;;;;26.90;38.20;;;;;;5073246;28;20360;-45
2020/12/04 06:24:17;;;;;;;;;;;26.90;38.10;;;;;;5073058;28;19958;-45
2020/12/04 06:26:51;;;;;;;;;;;26.90;38.20;;;;;;5072912;28;20267;-47
2020/12/04 06:29:17;;;;;;;;;;;26.90;38.10;;;;;;5074379;28;19994;-47
2020/12/04 06:31:42;;;;;;;;;;;26.90;38.10;;;;;;5081268;28;20416;-47
2020/12/04 06:34:15;;;;;;;;;;;26.90;38.10;;;;;;5091893;28;19908;-45
2020/12/04 06:36:40;;;;;;;;;;;26.90;38.10;;;;;;5086681;28;19955;-45
2020/12/04 06:39:06;;;;;;;;;;;26.90;38.40;;;;;;5072919;28;19973;-48
2020/12/04 06:41:35;;;;;;;;;;;26.90;38.20;;;;;;5072996;28;20399;-47
2020/12/04 06:44:01;;;;;;;;;;;26.90;38.30;;;;;;5073029;28;19962;-47
2020/12/04 06:46:31;;;;;;;;;;;26.90;38.90;;;;;;5073040;28;19920;-46
2020/12/04 06:49:09;;;;;;;;;;;26.90;38.30;;;;;;5092390;28;20372;-45
2020/12/04 06:51:38;;;;;;;;;;;26.90;38.10;;;;;;5094820;28;19958;-46
2020/12/04 06:54:07;;;;;;;;;;;26.90;36.20;;;;;;5075902;28;19913;-50
2020/12/04 06:56:33;;;;;;;;;;;25.50;27.10;;;;;;5076795;28;19920;-45
2020/12/04 06:58:59;;;;;;;;;;;24.20;26.60;;;;;;5083955;28;19913;-47
2020/12/04 07:01:24;;;;;;;;;;;23.50;28.60;;;;;;5096956;28;19915;-46
2020/12/04 07:03:50;;;;;;;;;;;23.50;28.20;;;;;;5096919;28;19927;-46
2020/12/04 07:06:23;;;;;;;;;;;23.70;28.70;;;;;;5094122;28;19928;-46
2020/12/04 07:08:55;;;;;;;;;;;24.00;28.50;;;;;;5080578;28;19943;-48
2020/12/04 07:11:20;;;;;;;;;;;24.30;29.10;;;;;;5096542;28;19938;-48
2020/12/04 07:13:46;;;;;;;;;;;24.90;29.90;;;;;;5096906;28;19908;-55
2020/12/04 07:16:11;;;;;;;;;;;25.20;30.10;;;;;;5089312;28;19951;-50
2020/12/04 07:18:37;;;;;;;;;;;25.70;30.10;;;;;;5076041;28;19931;-50
2020/12/04 07:21:02;;;;;;;;;;;26.00;30.30;;;;;;5095308;28;19916;-48
2020/12/04 07:23:28;;;;;;;;;;;26.20;30.20;;;;;;5096369;28;20030;-48
2020/12/04 07:25:53;;;;;;;;;;;26.40;30.40;;;;;;5096479;28;19915;-51
2020/12/04 07:28:19;;;;;;;;;;;26.60;31.20;;;;;;5096403;28;19909;-49
2020/12/04 07:30:45;;;;;;;;;;;26.70;30.80;;;;;;5096242;28;19912;-48
2020/12/04 07:33:11;;;;;;;;;;;26.80;31.20;;;;;;5085578;28;19966;-48
2020/12/04 07:35:36;;;;;;;;;;;26.80;31.20;;;;;;5083812;28;19912;-49
2020/12/04 07:38:06;;;;;;;;;;;26.90;31.40;;;;;;5076014;28;20019;-45
2020/12/04 07:40:31;;;;;;;;;;;26.80;31.80;;;;;;5075647;28;19909;-45
2020/12/04 07:42:57;;;;;;;;;;;26.70;32.30;;;;;;5077504;28;20333;-45
2020/12/04 07:45:22;;;;;;;;;;;26.70;32.30;;;;;;5076469;28;19958;-45
2020/12/04 07:47:47;;;;;;;;;;;26.70;32.20;;;;;;5075521;28;19908;-45
2020/12/04 07:50:13;;;;;;;;;;;26.80;32.40;;;;;;5075408;28;19930;-45
2020/12/04 07:52:50;;;;;;;;;;;26.80;36.50;;;;;;5075653;28;19948;-45
2020/12/04 07:55:15;;;;;;;;;;;26.80;36.60;;;;;;5077060;28;19915;-51
2020/12/04 07:57:44;;;;;;;;;;;26.90;37.70;;;;;;5094900;28;20003;-49
2020/12/04 08:00:12;;;;;;;;;;;27.10;38.30;;;;;;5095636;28;19912;-50
2020/12/04 08:02:38;;;;;;;;;;;27.20;37.70;;;;;;5095567;28;20351;-48
2020/12/04 08:05:03;;;;;;;;;;;27.30;37.80;;;;;;5092407;28;19968;-49
2020/12/04 08:07:29;;;;;;;;;;;27.30;37.80;;;;;;5095500;28;19924;-48
2020/12/04 08:09:55;;;;;;;;;;;27.40;37.70;;;;;;5095405;28;20255;-48
2020/12/04 08:12:22;;;;;;;;;;;27.40;37.80;;;;;;5095811;28;19908;-49
2020/12/04 08:14:49;;;;;;;;;;;27.40;37.80;;;;;;5095400;28;19908;-50
2020/12/04 08:17:16;;;;;;;;;;;27.40;38.00;;;;;;5086217;28;19920;-48
2020/12/04 08:19:43;;;;;;;;;;;27.40;37.80;;;;;;5075355;28;19913;-50
2020/12/04 08:22:08;;;;;;;;;;;27.40;37.90;;;;;;5075293;28;19932;-51
2020/12/04 08:24:35;;;;;;;;;;;27.40;37.90;;;;;;5075043;28;20371;-53
2020/12/04 08:27:01;;;;;;;;;;;27.40;37.80;;;;;;5075227;28;19916;-51
2020/12/04 08:29:26;;;;;;;;;;;27.40;37.80;;;;;;5074723;28;19916;-52
2020/12/04 08:32:02;;;;;;;;;;;27.50;37.80;;;;;;5087049;28;19930;-47
2020/12/04 08:34:27;;;;;;;;;;;27.50;37.80;;;;;;5077214;28;19916;-47
2020/12/04 08:37:00;;;;;;;;;;;27.40;38.20;;;;;;5074874;28;19908;-48
2020/12/04 08:39:41;;;;;;;;;;;27.30;38.00;;;;;;5074697;28;20385;-51
2020/12/04 08:42:16;;;;;;;;;;;27.20;38.30;;;;;;5074966;28;19908;-49
2020/12/04 08:45:02;;;;;;;;;;;27.30;38.00;;;;;;5074688;28;20362;-48
2020/12/04 08:47:31;;;;;;;;;;;27.40;37.80;;;;;;5071648;28;19920;-48
2020/12/04 08:49:57;;;;;;;;;;;27.40;37.70;;;;;;5094674;28;19920;-51
2020/12/04 08:52:45;;;;;;;;;;;27.40;37.70;;;;;;5094607;28;19912;-56
2020/12/04 08:55:11;;;;;;;;;;;27.50;37.70;;;;;;5094938;28;19912;-52
2020/12/04 08:57:37;;;;;;;;;;;27.50;37.70;;;;;;5094458;28;19916;-50
2020/12/04 09:00:03;;;;;;;;;;;27.50;37.70;;;;;;5093167;28;19938;-51
2020/12/04 09:02:29;;;;;;;;;;;27.50;37.80;;;;;;5094490;28;20385;-50
2020/12/04 09:04:54;;;;;;;;;;;27.50;37.80;;;;;;5094433;28;19951;-53
2020/12/04 09:07:20;;;;;;;;;;;27.50;37.70;;;;;;5094319;28;19928;-48
2020/12/04 09:09:45;;;;;;;;;;;27.50;37.80;;;;;;5091193;28;19924;-46
2020/12/04 09:12:11;;;;;;;;;;;27.50;37.70;;;;;;5094009;28;19943;-47
2020/12/04 09:14:36;;;;;;;;;;;27.60;37.80;;;;;;5094239;28;20362;-49
2020/12/04 09:17:02;;;;;;;;;;;27.60;37.90;;;;;;5094573;28;19912;-49
2020/12/04 09:19:27;;;;;;;;;;;27.60;37.90;;;;;;5094459;28;20277;-53
2020/12/04 09:21:53;;;;;;;;;;;27.60;38.00;;;;;;5094428;28;20266;-48
2020/12/04 09:24:18;;;;;;;;;;;27.60;37.90;;;;;;5082724;28;19943;-49
2020/12/04 09:26:44;;;;;;;;;;;27.60;38.00;;;;;;5073728;28;20362;-50
2020/12/04 09:29:09;;;;;;;;;;;27.60;38.00;;;;;;5073934;28;19924;-52
2020/12/04 09:31:35;;;;;;;;;;;27.60;38.10;;;;;;5073700;28;20367;-48
2020/12/04 09:34:00;;;;;;;;;;;27.60;38.00;;;;;;5073600;28;19912;-49
2020/12/04 09:36:26;;;;;;;;;;;27.60;38.00;;;;;;5073567;28;19913;-49
2020/12/04 09:38:51;;;;;;;;;;;27.60;38.00;;;;;;5083249;28;19923;-51
2020/12/04 09:41:17;;;;;;;;;;;27.70;38.00;;;;;;5094012;28;20006;-50
2020/12/04 09:43:42;;;;;;;;;;;27.70;38.00;;;;;;5093766;28;19907;-53
2020/12/04 09:46:08;;;;;;;;;;;27.60;38.00;;;;;;5092616;28;19958;-50
2020/12/04 09:48:34;;;;;;;;;;;27.70;38.10;;;;;;5073283;28;19962;-50
2020/12/04 09:50:59;;;;;;;;;;;27.70;38.10;;;;;;5073659;28;19912;-52
2020/12/04 09:53:25;;;;;;;;;;;27.70;38.20;;;;;;5073212;28;20370;-52
2020/12/04 09:55:50;;;;;;;;;;;27.70;38.10;;;;;;5089952;28;19916;-52
2020/12/04 09:58:16;;;;;;;;;;;27.70;38.10;;;;;;5093456;28;19912;-47
2020/12/04 10:00:42;;;;;;;;;;;27.70;38.40;;;;;;5093627;28;19918;-48
2020/12/04 10:03:08;;;;;;;;;;;27.60;38.20;;;;;;5093154;28;19999;-48
2020/12/04 10:05:33;;;;;;;;;;;27.60;38.30;;;;;;5093504;28;20038;-51
2020/12/04 10:07:59;;;;;;;;;;;27.60;38.10;;;;;;5093118;28;19921;-51
2020/12/04 10:10:24;;;;;;;;;;;27.60;38.20;;;;;;5077976;28;19927;-51
2020/12/04 10:12:50;;;;;;;;;;;27.70;38.10;;;;;;5073075;28;19908;-48
2020/12/04 10:15:15;;;;;;;;;;;27.60;38.30;;;;;;5073002;28;19915;-46
2020/12/04 10:17:41;;;;;;;;;;;27.60;38.60;;;;;;5078898;28;20350;-45
2020/12/04 10:20:06;;;;;;;;;;;27.50;38.70;;;;;;5093125;28;19943;-48
2020/12/04 10:22:32;;;;;;;;;;;27.50;39.00;;;;;;5093327;28;19922;-55
2020/12/04 10:24:57;;;;;;;;;;;27.50;39.50;;;;;;5090728;28;20350;-50
2020/12/04 10:27:23;;;;;;;;;;;27.60;39.30;;;;;;5072830;28;19909;-47
2020/12/04 10:29:49;;;;;;;;;;;27.70;39.30;;;;;;5072670;28;19917;-52
2020/12/04 10:32:14;;;;;;;;;;;27.80;39.50;;;;;;5072776;28;19912;-50
2020/12/04 10:34:40;;;;;;;;;;;27.90;39.60;;;;;;5072833;28;19908;-49
2020/12/04 10:37:05;;;;;;;;;;;27.90;39.80;;;;;;5072669;28;19950;-52
2020/12/04 10:39:31;;;;;;;;;;;27.90;40.00;;;;;;5072974;28;19958;-55
2020/12/04 10:41:56;;;;;;;;;;;27.90;40.10;;;;;;5074942;28;19912;-51
2020/12/04 10:44:22;;;;;;;;;;;27.90;40.30;;;;;;5072732;28;19917;-50
2020/12/04 10:46:47;;;;;;;;;;;27.90;40.40;;;;;;5072696;28;19966;-49
2020/12/04 10:49:13;;;;;;;;;;;27.90;40.80;;;;;;5072439;28;20392;-48
2020/12/04 10:51:38;;;;;;;;;;;27.80;40.70;;;;;;5072610;28;19999;-48
2020/12/04 10:54:04;;;;;;;;;;;27.90;40.90;;;;;;5072770;28;19959;-49
2020/12/04 10:56:30;;;;;;;;;;;27.90;40.90;;;;;;5075288;28;19995;-48
2020/12/04 10:58:55;;;;;;;;;;;27.90;40.90;;;;;;5072761;28;19963;-48
2020/12/04 11:01:36;;;;;;;;;;;27.90;40.90;;;;;;5080684;28;20437;-52
2020/12/04 11:06:47;;;;;;;;;;;27.80;40.90;;;;;;5092483;28;19927;-50
2020/12/04 11:09:12;;;;;;;;;;;27.90;40.80;;;;;;5092767;28;19924;-51
2020/12/04 11:11:38;;;;;;;;;;;27.90;40.80;;;;;;5081877;28;19922;-52
2020/12/04 11:14:03;;;;;;;;;;;27.90;40.70;;;;;;5072353;28;19931;-46
2020/12/04 11:16:29;;;;;;;;;;;27.90;40.80;;;;;;5073242;28;19908;-45
2020/12/04 11:18:54;;;;;;;;;;;27.80;40.80;;;;;;5072227;28;19913;-45
2020/12/04 11:21:20;;;;;;;;;;;27.90;40.60;;;;;;5072620;28;19909;-48
2020/12/04 11:23:45;;;;;;;;;;;27.70;40.60;;;;;;5072225;28;20350;-48
2020/12/04 11:26:11;;;;;;;;;;;27.80;40.40;;;;;;5072578;28;19915;-48
2020/12/04 11:28:36;;;;;;;;;;;27.80;40.30;;;;;;5072037;28;19908;-48
2020/12/04 11:31:02;;;;;;;;;;;27.80;40.20;;;;;;5092634;28;19919;-48
2020/12/04 11:33:27;;;;;;;;;;;27.80;40.10;;;;;;5092361;28;19908;-51
2020/12/04 11:35:54;;;;;;;;;;;27.80;39.90;;;;;;5095540;28;19920;-51
2020/12/04 11:38:19;;;;;;;;;;;27.80;39.90;;;;;;5096358;28;19908;-46
2020/12/04 11:40:45;;;;;;;;;;;27.80;40.10;;;;;;5096129;28;20269;-56
2020/12/04 11:43:10;;;;;;;;;;;27.80;40.10;;;;;;5095992;28;19908;-51
2020/12/04 11:45:36;;;;;;;;;;;27.80;40.10;;;;;;5078313;28;19912;-54
2020/12/04 11:48:02;;;;;;;;;;;27.90;40.10;;;;;;5075876;28;19912;-50
2020/12/04 11:50:27;;;;;;;;;;;27.90;40.10;;;;;;5075736;28;20388;-50
2020/12/04 11:52:53;;;;;;;;;;;27.90;40.10;;;;;;5075594;28;19913;-49
2020/12/04 11:55:18;;;;;;;;;;;27.90;40.20;;;;;;5075797;28;19913;-55
2020/12/04 11:57:44;;;;;;;;;;;27.90;40.30;;;;;;5075682;28;19909;-53
2020/12/04 12:00:10;;;;;;;;;;;27.90;40.30;;;;;;5080150;28;19947;-49
2020/12/04 12:02:35;;;;;;;;;;;28.00;40.50;;;;;;5075976;28;20327;-48
2020/12/04 12:05:01;;;;;;;;;;;27.90;40.80;;;;;;5075690;28;19908;-52
2020/12/04 12:07:26;;;;;;;;;;;27.70;38.50;;;;;;5082596;28;20294;-52
2020/12/04 12:09:52;;;;;;;;;;;27.70;38.70;;;;;;5095742;28;19920;-47
2020/12/04 12:12:18;;;;;;;;;;;27.60;40.00;;;;;;5095481;28;19908;-48
2020/12/04 12:14:46;;;;;;;;;;;27.60;39.40;;;;;;5095465;28;19908;-52
2020/12/04 12:17:12;;;;;;;;;;;27.60;39.30;;;;;;5088574;28;19916;-47
2020/12/04 12:19:39;;;;;;;;;;;27.70;39.50;;;;;;5075213;28;19916;-50
2020/12/04 12:22:07;;;;;;;;;;;27.70;39.30;;;;;;5075124;28;20012;-50
2020/12/04 12:24:33;;;;;;;;;;;27.80;39.40;;;;;;5075278;28;19978;-50
2020/12/04 12:26:58;;;;;;;;;;;27.80;39.30;;;;;;5093512;28;20329;-49
2020/12/04 12:29:24;;;;;;;;;;;27.80;39.40;;;;;;5094353;28;20384;-52
2020/12/04 12:31:49;;;;;;;;;;;27.80;39.40;;;;;;5095195;28;20001;-50
2020/12/04 12:34:15;;;;;;;;;;;27.90;39.50;;;;;;5095373;28;19908;-53
2020/12/04 12:36:40;;;;;;;;;;;27.80;39.40;;;;;;5093097;28;19965;-53
2020/12/04 12:39:06;;;;;;;;;;;27.90;39.50;;;;;;5074732;28;20006;-54
2020/12/04 12:41:31;;;;;;;;;;;27.80;39.30;;;;;;5074967;28;19931;-51
2020/12/04 12:43:57;;;;;;;;;;;27.80;39.40;;;;;;5074836;28;19905;-49
2020/12/04 12:46:22;;;;;;;;;;;27.90;39.30;;;;;;5073565;28;19909;-52
2020/12/04 12:48:48;;;;;;;;;;;27.70;33.10;;;;;;5074512;28;20011;-58
2020/12/04 12:51:13;;;;;;;;;;;27.30;31.50;;;;;;5074470;28;20006;-51
2020/12/04 12:53:39;;;;;;;;;;;26.40;28.00;;;;;;5078407;28;19916;-51
2020/12/04 12:56:05;;;;;;;;;;;24.40;26.10;;;;;;5094642;28;19919;-50
2020/12/04 12:58:30;;;;;;;;;;;22.20;27.60;;;;;;5094925;28;19909;-46
2020/12/04 13:00:56;;;;;;;;;;;20.70;29.60;;;;;;5094485;28;19908;-46
2020/12/04 13:03:21;;;;;;;;;;;21.50;32.10;;;;;;5094487;28;19908;-52
2020/12/04 13:05:47;;;;;;;;;;;22.70;33.40;;;;;;5094844;28;19950;-51
2020/12/04 13:08:12;;;;;;;;;;;23.80;34.30;;;;;;5093457;28;20443;-51
2020/12/04 13:10:38;;;;;;;;;;;24.70;34.30;;;;;;5094539;28;19928;-53
2020/12/04 13:13:03;;;;;;;;;;;25.50;33.80;;;;;;5093093;28;19915;-52
2020/12/04 13:15:29;;;;;;;;;;;26.00;33.10;;;;;;5094527;28;20330;-53
2020/12/04 13:17:54;;;;;;;;;;;26.30;32.70;;;;;;5094299;28;20372;-47
2020/12/04 13:20:20;;;;;;;;;;;26.60;32.90;;;;;;5094607;28;20002;-47
2020/12/04 13:23:12;;;;;;;;;;;26.70;33.00;;;;;;5093487;28;20358;-48
2020/12/04 13:25:31;;;;;;;;;;;26.70;33.10;;;;;;5073918;28;19916;-51
2020/12/04 13:27:56;;;;;;;;;;;26.90;33.20;;;;;;5073884;28;19916;-51
2020/12/04 13:30:22;;;;;;;;;;;26.90;33.00;;;;;;5073914;28;20355;-53
2020/12/04 13:32:48;;;;;;;;;;;27.10;33.20;;;;;;5088064;28;20255;-52
2020/12/04 13:35:13;;;;;;;;;;;27.20;33.40;;;;;;5094485;28;19916;-53
2020/12/04 13:37:39;;;;;;;;;;;27.30;33.50;;;;;;5094132;28;19908;-53
2020/12/04 13:40:04;;;;;;;;;;;27.30;33.60;;;;;;5094208;28;19912;-56
2020/12/04 13:42:30;;;;;;;;;;;27.40;33.70;;;;;;5094206;28;19908;-53
2020/12/04 13:44:55;;;;;;;;;;;27.40;33.90;;;;;;5075474;28;20315;-52
2020/12/04 13:47:21;;;;;;;;;;;27.40;34.00;;;;;;5073500;28;19922;-46
2020/12/04 13:49:46;;;;;;;;;;;27.30;34.80;;;;;;5074059;28;19916;-52
2020/12/04 13:52:12;;;;;;;;;;;27.20;34.60;;;;;;5073749;28;20382;-44
2020/12/04 13:54:37;;;;;;;;;;;27.10;35.00;;;;;;5073707;28;19912;-46
2020/12/04 13:57:03;;;;;;;;;;;27.20;35.30;;;;;;5073309;28;19908;-46
2020/12/04 13:59:28;;;;;;;;;;;27.20;35.00;;;;;;5085167;28;20011;-49
2020/12/04 14:01:55;;;;;;;;;;;27.10;35.00;;;;;;5093745;28;19948;-46
2020/12/04 14:04:21;;;;;;;;;;;27.10;35.20;;;;;;5093667;28;19908;-46
2020/12/04 14:06:48;;;;;;;;;;;26.90;35.50;;;;;;5093273;28;19968;-52
2020/12/04 14:09:13;;;;;;;;;;;27.00;35.80;;;;;;5093227;28;20393;-54
2020/12/04 14:11:39;;;;;;;;;;;27.20;35.40;;;;;;5077877;28;19912;-53
2020/12/04 14:14:04;;;;;;;;;;;27.20;35.40;;;;;;5073370;28;19908;-53